Time;durP1;ratioP1;P1;durP2;ratioP2;P2;SDS_P1;SDS_P2;PMS_P1;PMS_P2;Temp;Humidity;BMP_temperature;BMP_pressure;BME280_temperature;BME280_humidity;BME280_pressure;Samples;Min_cycle;Max_cycle;Signal;HPM_P1;HPM_P2
2022/07/13 00:01:37;;;;;;;1.80;1.10;;;;;;;;;;5029947;28;20061;-58
2022/07/13 00:04:03;;;;;;;1.55;1.13;;;;;;;;;;5023629;28;20486;-59
2022/07/13 00:06:29;;;;;;;1.15;0.88;;;;;;;;;;5022086;28;20033;-58
2022/07/13 00:08:55;;;;;;;1.92;1.30;;;;;;;;;;5030695;28;20080;-59
2022/07/13 00:11:21;;;;;;;5.32;0.98;;;;;;;;;;5033081;28;20036;-59
2022/07/13 00:13:47;;;;;;;0.98;0.88;;;;;;;;;;5025952;28;20026;-59
2022/07/13 00:16:13;;;;;;;1.13;0.82;;;;;;;;;;5037346;28;20040;-59
2022/07/13 00:18:39;;;;;;;1.10;1.00;;;;;;;;;;5044624;28;20032;-59
2022/07/13 00:21:05;;;;;;;1.80;0.90;;;;;;;;;;5031168;28;20033;-59
2022/07/13 00:23:31;;;;;;;2.30;1.30;;;;;;;;;;5033948;28;20109;-59
2022/07/13 00:25:57;;;;;;;3.38;0.90;;;;;;;;;;5028251;28;20025;-59
2022/07/13 00:28:23;;;;;;;2.28;1.30;;;;;;;;;;5024357;28;20091;-59
2022/07/13 00:30:49;;;;;;;1.85;1.20;;;;;;;;;;5022348;28;20033;-59
2022/07/13 00:33:15;;;;;;;1.30;1.02;;;;;;;;;;5040473;28;20699;-59
2022/07/13 00:35:41;;;;;;;2.10;1.30;;;;;;;;;;5033942;28;20030;-58
2022/07/13 00:38:07;;;;;;;2.13;1.58;;;;;;;;;;5037965;28;20025;-59
2022/07/13 00:40:33;;;;;;;4.35;1.20;;;;;;;;;;5026105;28;20021;-59
2022/07/13 00:42:59;;;;;;;1.58;0.98;;;;;;;;;;5037313;28;20029;-59
2022/07/13 00:45:25;;;;;;;1.33;0.98;;;;;;;;;;5043818;28;20032;-58
2022/07/13 00:47:51;;;;;;;1.98;1.13;;;;;;;;;;5036241;28;20374;-58
2022/07/13 00:50:17;;;;;;;4.68;1.23;;;;;;;;;;5034122;28;20029;-59
2022/07/13 00:52:44;;;;;;;3.92;1.25;;;;;;;;;;5031648;28;20030;-59
2022/07/13 00:55:10;;;;;;;1.73;1.10;;;;;;;;;;5030397;28;20030;-59
2022/07/13 00:57:37;;;;;;;1.42;1.00;;;;;;;;;;5036764;28;20025;-59
2022/07/13 01:00:09;;;;;;;2.15;1.10;;;;;;;;;;5033423;28;20060;-59
2022/07/13 01:02:38;;;;;;;1.55;1.27;;;;;;;;;;5033550;28;20030;-59
2022/07/13 01:05:05;;;;;;;2.30;1.20;;;;;;;;;;5035204;28;20033;-59
2022/07/13 01:07:32;;;;;;;2.20;1.20;;;;;;;;;;5031532;28;20103;-59
2022/07/13 01:09:58;;;;;;;1.85;0.98;;;;;;;;;;5027927;28;20491;-59
2022/07/13 01:12:24;;;;;;;3.28;1.27;;;;;;;;;;5020452;28;20033;-59
2022/07/13 01:14:50;;;;;;;1.73;1.25;;;;;;;;;;5027284;28;20105;-58
2022/07/13 01:17:17;;;;;;;1.60;1.00;;;;;;;;;;5028356;28;20116;-59
2022/07/13 01:19:43;;;;;;;2.63;1.20;;;;;;;;;;5032582;28;20029;-58
2022/07/13 01:22:10;;;;;;;1.17;1.00;;;;;;;;;;5031437;28;20075;-57
2022/07/13 01:24:36;;;;;;;1.80;1.13;;;;;;;;;;5031168;28;20771;-58
2022/07/13 01:27:02;;;;;;;1.73;1.10;;;;;;;;;;5034177;28;20131;-59
2022/07/13 01:29:28;;;;;;;4.70;1.30;;;;;;;;;;5029527;28;20548;-59
2022/07/13 01:31:59;;;;;;;1.65;1.23;;;;;;;;;;5029640;28;20046;-58
2022/07/13 01:34:25;;;;;;;1.70;1.30;;;;;;;;;;5021735;28;20084;-59
2022/07/13 01:36:51;;;;;;;1.85;1.33;;;;;;;;;;5033293;28;20074;-59
2022/07/13 01:39:17;;;;;;;1.75;1.05;;;;;;;;;;5039621;28;20029;-59
2022/07/13 01:41:43;;;;;;;1.70;1.23;;;;;;;;;;5035638;28;20028;-58
2022/07/13 01:44:09;;;;;;;1.52;1.08;;;;;;;;;;5033552;28;20064;-59
2022/07/13 01:46:35;;;;;;;1.90;1.10;;;;;;;;;;5033025;28;20481;-58
2022/07/13 01:49:01;;;;;;;2.05;1.10;;;;;;;;;;5032823;28;20036;-59
2022/07/13 01:51:27;;;;;;;2.88;1.20;;;;;;;;;;5031948;28;20032;-57
2022/07/13 01:53:53;;;;;;;6.75;1.70;;;;;;;;;;5030547;28;20033;-56
2022/07/13 01:56:19;;;;;;;1.63;1.20;;;;;;;;;;5029233;28;20042;-59
2022/07/13 01:58:45;;;;;;;1.15;0.95;;;;;;;;;;5034947;28;20037;-58
2022/07/13 02:01:11;;;;;;;2.53;1.48;;;;;;;;;;5028511;28;20026;-58
2022/07/13 02:03:37;;;;;;;2.15;1.10;;;;;;;;;;5030618;28;20115;-59
2022/07/13 02:06:05;;;;;;;1.23;1.00;;;;;;;;;;5036694;28;20025;-59
2022/07/13 02:08:31;;;;;;;1.98;1.23;;;;;;;;;;5031319;28;20029;-59
2022/07/13 02:10:57;;;;;;;1.67;1.27;;;;;;;;;;5018799;28;20037;-59
2022/07/13 02:13:23;;;;;;;2.85;1.30;;;;;;;;;;5034993;28;20030;-59
2022/07/13 02:15:49;;;;;;;1.92;1.20;;;;;;;;;;5021583;28;20025;-58
2022/07/13 02:18:15;;;;;;;2.97;1.30;;;;;;;;;;5032625;28;20117;-58
2022/07/13 02:20:41;;;;;;;2.05;1.35;;;;;;;;;;5025890;28;20025;-58
2022/07/13 02:23:07;;;;;;;1.27;1.00;;;;;;;;;;5026694;28;20030;-59
2022/07/13 02:25:34;;;;;;;1.83;1.30;;;;;;;;;;5030301;28;20074;-58
2022/07/13 02:28:00;;;;;;;1.45;1.15;;;;;;;;;;5030626;28;20091;-58
2022/07/13 02:30:26;;;;;;;3.25;1.50;;;;;;;;;;5046437;28;20037;-58
2022/07/13 02:32:52;;;;;;;2.95;1.30;;;;;;;;;;5036942;28;20060;-56
2022/07/13 02:35:18;;;;;;;1.38;1.13;;;;;;;;;;5030821;28;20105;-58
2022/07/13 02:37:44;;;;;;;4.80;1.13;;;;;;;;;;5025114;28;20594;-59
2022/07/13 02:40:12;;;;;;;1.42;1.00;;;;;;;;;;5025189;28;20030;-58
2022/07/13 02:42:38;;;;;;;2.95;1.27;;;;;;;;;;5031011;28;20026;-58
2022/07/13 02:45:05;;;;;;;1.92;1.50;;;;;;;;;;5039430;28;20034;-58
2022/07/13 02:47:31;;;;;;;1.60;1.20;;;;;;;;;;5026971;28;20413;-57
2022/07/13 02:49:57;;;;;;;3.25;0.90;;;;;;;;;;5022080;28;20037;-59
2022/07/13 02:52:23;;;;;;;1.27;1.10;;;;;;;;;;5027473;28;20083;-59
2022/07/13 02:54:49;;;;;;;1.95;1.20;;;;;;;;;;5037417;28;20028;-58
2022/07/13 02:57:15;;;;;;;3.30;1.38;;;;;;;;;;5035412;28;20084;-58
2022/07/13 02:59:41;;;;;;;3.83;1.58;;;;;;;;;;5028513;28;20034;-59
2022/07/13 03:02:07;;;;;;;2.85;1.30;;;;;;;;;;5022458;28;20432;-58
2022/07/13 03:04:33;;;;;;;2.15;1.23;;;;;;;;;;5041150;28;20084;-59
2022/07/13 03:06:59;;;;;;;1.95;1.60;;;;;;;;;;5034261;28;20128;-59
2022/07/13 03:09:25;;;;;;;2.15;1.10;;;;;;;;;;5026973;28;20037;-59
2022/07/13 03:11:52;;;;;;;1.45;1.08;;;;;;;;;;5018413;28;20587;-59
2022/07/13 03:14:18;;;;;;;2.17;1.42;;;;;;;;;;5031341;28;20029;-59
2022/07/13 03:16:44;;;;;;;1.73;1.35;;;;;;;;;;5026041;28;20021;-59
2022/07/13 03:19:10;;;;;;;2.47;1.20;;;;;;;;;;5034243;28;20032;-59
2022/07/13 03:21:36;;;;;;;2.28;1.50;;;;;;;;;;5021835;28;20087;-58
2022/07/13 03:24:02;;;;;;;1.52;1.13;;;;;;;;;;5016169;28;20861;-59
2022/07/13 03:26:29;;;;;;;2.17;1.30;;;;;;;;;;5020886;28;20526;-59
2022/07/13 03:28:55;;;;;;;1.58;1.23;;;;;;;;;;5037385;28;20033;-59
2022/07/13 03:31:21;;;;;;;1.85;1.50;;;;;;;;;;5021812;28;20080;-59
2022/07/13 03:33:48;;;;;;;2.28;1.33;;;;;;;;;;5032863;28;20040;-57
2022/07/13 03:36:14;;;;;;;5.70;1.30;;;;;;;;;;5029407;28;20036;-57
2022/07/13 03:38:40;;;;;;;1.50;1.05;;;;;;;;;;5028873;28;20603;-57
2022/07/13 03:41:06;;;;;;;1.50;1.20;;;;;;;;;;5036165;28;20104;-59
2022/07/13 03:43:32;;;;;;;2.30;1.50;;;;;;;;;;5025980;28;20025;-58
2022/07/13 03:45:58;;;;;;;1.42;1.17;;;;;;;;;;5024067;28;20030;-58
2022/07/13 03:48:24;;;;;;;2.05;1.20;;;;;;;;;;5032097;28;20021;-58
2022/07/13 03:50:50;;;;;;;2.33;1.40;;;;;;;;;;5030507;28;20473;-59
2022/07/13 03:53:16;;;;;;;1.70;0.93;;;;;;;;;;5027641;28;20033;-58
2022/07/13 03:55:43;;;;;;;1.80;1.35;;;;;;;;;;5024231;28;20042;-57
2022/07/13 03:58:10;;;;;;;2.17;1.30;;;;;;;;;;5020837;28;20025;-59
2022/07/13 04:00:36;;;;;;;2.45;1.58;;;;;;;;;;5037956;28;20112;-59
2022/07/13 04:03:02;;;;;;;3.83;1.23;;;;;;;;;;5028657;28;20025;-59
2022/07/13 04:05:28;;;;;;;5.30;1.38;;;;;;;;;;5030573;28;20496;-58
2022/07/13 04:07:54;;;;;;;2.58;1.40;;;;;;;;;;5027322;28;20388;-57
2022/07/13 04:10:21;;;;;;;8.70;1.33;;;;;;;;;;5020210;28;20041;-59
2022/07/13 04:12:47;;;;;;;1.67;1.35;;;;;;;;;;5017654;28;20041;-59
2022/07/13 04:15:13;;;;;;;6.10;1.40;;;;;;;;;;5033970;28;20029;-58
2022/07/13 04:17:39;;;;;;;1.38;1.10;;;;;;;;;;5026874;28;20520;-59
2022/07/13 04:20:05;;;;;;;3.20;1.63;;;;;;;;;;5041662;28;20025;-58
2022/07/13 04:22:31;;;;;;;1.67;1.33;;;;;;;;;;5031071;28;20362;-59
2022/07/13 04:24:57;;;;;;;2.22;1.20;;;;;;;;;;5030428;28;20146;-59
2022/07/13 04:27:23;;;;;;;1.95;1.65;;;;;;;;;;5030296;28;20032;-57
2022/07/13 04:29:50;;;;;;;2.38;1.50;;;;;;;;;;5028275;28;20374;-58
2022/07/13 04:32:16;;;;;;;2.50;1.60;;;;;;;;;;5029595;28;20497;-56
2022/07/13 04:34:42;;;;;;;2.08;1.30;;;;;;;;;;5031940;28;20045;-58
2022/07/13 04:37:08;;;;;;;2.05;1.67;;;;;;;;;;5036074;28;20707;-59
2022/07/13 04:39:34;;;;;;;5.05;1.25;;;;;;;;;;5039888;28;20044;-59
2022/07/13 04:42:00;;;;;;;3.53;1.60;;;;;;;;;;5037334;28;20030;-59
2022/07/13 04:44:26;;;;;;;1.65;1.23;;;;;;;;;;5035168;28;20527;-59
2022/07/13 04:46:52;;;;;;;2.40;1.15;;;;;;;;;;5031186;28;20053;-59
2022/07/13 04:49:19;;;;;;;2.30;1.25;;;;;;;;;;5042789;28;20523;-59
2022/07/13 04:51:45;;;;;;;3.67;1.27;;;;;;;;;;5031728;28;20033;-59
2022/07/13 04:54:11;;;;;;;1.67;1.20;;;;;;;;;;5030290;28;20033;-59
2022/07/13 04:56:37;;;;;;;1.58;1.38;;;;;;;;;;5035933;28;20515;-57
2022/07/13 04:59:03;;;;;;;2.20;1.60;;;;;;;;;;5043693;28;20032;-58
2022/07/13 05:01:29;;;;;;;1.02;0.90;;;;;;;;;;5032732;28;20033;-58
2022/07/13 05:03:55;;;;;;;2.15;1.30;;;;;;;;;;5037578;28;20057;-58
2022/07/13 05:06:21;;;;;;;2.35;1.25;;;;;;;;;;5035650;28;20037;-59
2022/07/13 05:08:47;;;;;;;1.92;1.10;;;;;;;;;;5036277;28;20048;-58
2022/07/13 05:11:13;;;;;;;2.80;1.35;;;;;;;;;;5038491;28;20036;-58
2022/07/13 05:13:39;;;;;;;1.98;1.15;;;;;;;;;;5039076;28;20025;-59
2022/07/13 05:16:05;;;;;;;2.10;1.17;;;;;;;;;;5027149;28;20037;-59
2022/07/13 05:18:32;;;;;;;2.03;1.30;;;;;;;;;;5041646;28;20399;-59
2022/07/13 05:20:58;;;;;;;1.30;1.20;;;;;;;;;;5034797;28;20032;-57
2022/07/13 05:23:23;;;;;;;2.30;1.10;;;;;;;;;;5034849;28;20034;-59
2022/07/13 05:25:49;;;;;;;2.95;1.13;;;;;;;;;;5041965;28;20025;-59
2022/07/13 05:28:15;;;;;;;1.95;1.23;;;;;;;;;;5041219;28;20025;-58
2022/07/13 05:30:41;;;;;;;3.50;1.00;;;;;;;;;;5032698;28;20036;-57
2022/07/13 05:33:07;;;;;;;1.60;1.27;;;;;;;;;;5032772;28;20036;-59
2022/07/13 05:35:33;;;;;;;1.20;1.10;;;;;;;;;;5027206;28;20033;-56
2022/07/13 05:37:59;;;;;;;1.92;1.10;;;;;;;;;;5044737;28;20028;-58
2022/07/13 05:40:25;;;;;;;2.60;1.15;;;;;;;;;;5030552;28;20029;-59
2022/07/13 05:42:52;;;;;;;4.03;1.30;;;;;;;;;;5037663;28;20199;-59
2022/07/13 05:45:18;;;;;;;1.30;0.90;;;;;;;;;;5038337;28;20068;-59
2022/07/13 05:47:47;;;;;;;7.40;1.13;;;;;;;;;;5033582;28;20033;-59
2022/07/13 05:50:13;;;;;;;3.58;1.20;;;;;;;;;;5046351;28;20443;-59
2022/07/13 05:52:40;;;;;;;1.90;1.25;;;;;;;;;;5034852;28;20116;-58
2022/07/13 05:55:06;;;;;;;2.60;1.13;;;;;;;;;;5027878;28;20524;-59
2022/07/13 05:57:32;;;;;;;1.23;1.13;;;;;;;;;;5029311;28;20033;-59
2022/07/13 05:59:58;;;;;;;4.50;1.38;;;;;;;;;;5031905;28;20052;-58
2022/07/13 06:02:24;;;;;;;3.75;1.10;;;;;;;;;;5035894;28;20469;-59
2022/07/13 06:04:50;;;;;;;4.13;1.15;;;;;;;;;;5039672;28;20033;-58
2022/07/13 06:07:16;;;;;;;2.45;1.38;;;;;;;;;;5035487;28;20029;-59
2022/07/13 06:09:42;;;;;;;1.38;1.13;;;;;;;;;;5040258;28;20024;-59
2022/07/13 06:12:08;;;;;;;1.25;1.00;;;;;;;;;;5030720;28;20083;-59
2022/07/13 06:14:34;;;;;;;1.45;1.05;;;;;;;;;;5032070;28;20477;-59
2022/07/13 06:17:00;;;;;;;2.00;1.58;;;;;;;;;;5032061;28;20040;-59
2022/07/13 06:19:26;;;;;;;4.40;1.58;;;;;;;;;;5026644;28;20030;-59
2022/07/13 06:21:52;;;;;;;1.88;1.10;;;;;;;;;;5031818;28;20025;-59
2022/07/13 06:24:18;;;;;;;3.20;1.40;;;;;;;;;;5031824;28;20531;-59
2022/07/13 06:26:45;;;;;;;2.42;1.10;;;;;;;;;;5031601;28;20025;-58
2022/07/13 06:29:11;;;;;;;1.65;1.00;;;;;;;;;;5030320;28;20134;-60
2022/07/13 06:31:37;;;;;;;1.15;1.00;;;;;;;;;;5031395;28;20568;-59
2022/07/13 06:34:03;;;;;;;3.00;1.17;;;;;;;;;;5029412;28;20033;-59
2022/07/13 06:36:29;;;;;;;3.63;1.17;;;;;;;;;;5029423;28;20124;-59
2022/07/13 06:38:55;;;;;;;3.13;1.10;;;;;;;;;;5031470;28;20485;-60
2022/07/13 06:41:21;;;;;;;3.40;0.85;;;;;;;;;;5031102;28;20049;-58
2022/07/13 06:43:47;;;;;;;1.42;0.90;;;;;;;;;;5031428;28;20128;-58
2022/07/13 06:46:13;;;;;;;1.50;1.10;;;;;;;;;;5031538;28;20104;-59
2022/07/13 06:48:39;;;;;;;1.40;0.90;;;;;;;;;;5037847;28;20095;-59
2022/07/13 06:51:05;;;;;;;1.13;1.02;;;;;;;;;;5033019;28;20105;-59
2022/07/13 06:53:31;;;;;;;3.67;0.85;;;;;;;;;;5032535;28;20033;-59
2022/07/13 06:55:57;;;;;;;1.27;0.88;;;;;;;;;;5028282;28;20044;-59
2022/07/13 06:58:23;;;;;;;1.98;1.25;;;;;;;;;;5030288;28;20035;-59
2022/07/13 07:00:49;;;;;;;3.00;1.15;;;;;;;;;;5030960;28;20022;-57
2022/07/13 07:03:15;;;;;;;2.53;1.08;;;;;;;;;;5031009;28;20441;-58
2022/07/13 07:05:41;;;;;;;4.82;1.20;;;;;;;;;;5030546;28;20029;-58
2022/07/13 07:08:07;;;;;;;1.67;1.02;;;;;;;;;;5029712;28;20155;-59
2022/07/13 07:10:33;;;;;;;3.10;1.25;;;;;;;;;;5030966;28;20042;-59
2022/07/13 07:12:59;;;;;;;2.78;1.30;;;;;;;;;;5030913;28;20029;-58
2022/07/13 07:15:25;;;;;;;1.58;0.73;;;;;;;;;;5038201;28;20035;-59
2022/07/13 07:17:51;;;;;;;2.55;0.93;;;;;;;;;;5034166;28;20389;-59
2022/07/13 07:20:18;;;;;;;1.20;1.00;;;;;;;;;;5030156;28;20033;-59
2022/07/13 07:22:46;;;;;;;3.13;1.10;;;;;;;;;;5029544;28;20025;-58
2022/07/13 07:25:12;;;;;;;2.70;0.85;;;;;;;;;;5033059;28;20024;-59
2022/07/13 07:27:39;;;;;;;3.03;1.00;;;;;;;;;;5045244;28;20021;-59
2022/07/13 07:30:06;;;;;;;1.83;1.00;;;;;;;;;;5024018;28;20065;-58
2022/07/13 07:32:32;;;;;;;3.70;1.23;;;;;;;;;;5029928;28;20029;-59
2022/07/13 07:34:58;;;;;;;1.92;1.00;;;;;;;;;;5027587;28;20032;-59
2022/07/13 07:37:24;;;;;;;4.25;1.15;;;;;;;;;;5030697;28;20032;-59
2022/07/13 07:39:50;;;;;;;2.15;1.30;;;;;;;;;;5032425;28;20634;-59
2022/07/13 07:42:16;;;;;;;2.80;1.20;;;;;;;;;;5030347;28;20030;-58
2022/07/13 07:44:42;;;;;;;2.20;1.00;;;;;;;;;;5044508;28;20013;-59
2022/07/13 07:47:08;;;;;;;1.98;1.15;;;;;;;;;;5033640;28;20385;-59
2022/07/13 07:49:35;;;;;;;3.75;0.82;;;;;;;;;;5030438;28;20108;-59
2022/07/13 07:52:01;;;;;;;2.60;0.90;;;;;;;;;;5025356;28;20060;-59
2022/07/13 07:54:27;;;;;;;1.92;0.90;;;;;;;;;;5029142;28;20781;-58
2022/07/13 07:56:52;;;;;;;2.05;0.98;;;;;;;;;;5023640;28;20115;-59
2022/07/13 07:59:19;;;;;;;1.00;0.80;;;;;;;;;;5031030;28;20052;-58
2022/07/13 08:01:45;;;;;;;1.48;0.85;;;;;;;;;;5030109;28;20051;-59
2022/07/13 08:04:11;;;;;;;3.17;1.08;;;;;;;;;;5020788;28;20090;-59
2022/07/13 08:06:38;;;;;;;1.60;0.85;;;;;;;;;;5030747;28;20544;-59
2022/07/13 08:09:04;;;;;;;1.45;1.15;;;;;;;;;;5032311;28;20470;-59
2022/07/13 08:11:30;;;;;;;2.05;1.05;;;;;;;;;;5033603;28;20037;-58
2022/07/13 08:13:56;;;;;;;3.92;1.05;;;;;;;;;;5029963;28;20606;-59
2022/07/13 08:16:23;;;;;;;3.00;1.40;;;;;;;;;;5032273;28;20036;-60
2022/07/13 08:18:49;;;;;;;1.35;0.80;;;;;;;;;;5034469;28;20030;-59
2022/07/13 08:21:15;;;;;;;3.15;1.13;;;;;;;;;;5033808;28;20108;-58
2022/07/13 08:23:56;;;;;;;2.28;1.00;;;;;;;;;;5030428;28;20160;-58
2022/07/13 08:26:23;;;;;;;1.05;0.85;;;;;;;;;;5033621;28;20028;-60
2022/07/13 08:28:50;;;;;;;1.33;1.05;;;;;;;;;;5031066;28;20029;-59
2022/07/13 08:31:16;;;;;;;2.35;0.93;;;;;;;;;;5040451;28;20029;-59
2022/07/13 08:39:12;;;;;;;1.67;1.23;;;;;;;;;;5037522;28;20036;-59
2022/07/13 08:41:38;;;;;;;1.40;1.10;;;;;;;;;;5033268;28;20170;-59
2022/07/13 08:44:05;;;;;;;1.67;0.70;;;;;;;;;;5034892;28;20370;-59
2022/07/13 08:46:31;;;;;;;2.15;1.02;;;;;;;;;;5029952;28;20040;-57
2022/07/13 08:48:57;;;;;;;1.38;0.88;;;;;;;;;;5041875;28;20041;-58
2022/07/13 08:51:24;;;;;;;1.30;0.98;;;;;;;;;;5033384;28;20556;-59
2022/07/13 08:53:56;;;;;;;1.45;1.08;;;;;;;;;;5030668;28;20105;-57
2022/07/13 08:56:22;;;;;;;0.90;0.70;;;;;;;;;;5034119;28;20500;-59
2022/07/13 08:58:48;;;;;;;1.33;0.90;;;;;;;;;;5033549;28;20473;-59
2022/07/13 09:01:15;;;;;;;1.38;0.98;;;;;;;;;;5033079;28;20032;-57
2022/07/13 09:03:41;;;;;;;2.58;1.00;;;;;;;;;;5031758;28;20116;-59
2022/07/13 09:06:07;;;;;;;5.60;0.80;;;;;;;;;;5025600;28;20447;-58
2022/07/13 09:08:41;;;;;;;1.15;0.80;;;;;;;;;;5023171;28;20029;-59
2022/07/13 09:11:07;;;;;;;2.25;0.82;;;;;;;;;;5033112;28;20033;-60
2022/07/13 09:13:34;;;;;;;3.00;1.05;;;;;;;;;;5032919;28;20064;-59
2022/07/13 09:16:14;;;;;;;3.13;0.80;;;;;;;;;;5029192;28;20033;-59
2022/07/13 09:18:40;;;;;;;1.20;0.68;;;;;;;;;;5023592;28;20072;-58
2022/07/13 09:21:06;;;;;;;0.98;0.65;;;;;;;;;;5027938;28;20029;-59
2022/07/13 09:23:32;;;;;;;1.70;0.80;;;;;;;;;;5036207;28;20025;-59
2022/07/13 09:25:58;;;;;;;2.20;0.80;;;;;;;;;;5026799;28;20596;-59
2022/07/13 09:28:25;;;;;;;0.63;0.60;;;;;;;;;;5029954;28;21631;-58
2022/07/13 09:30:51;;;;;;;1.63;0.70;;;;;;;;;;5029886;28;20104;-59
2022/07/13 09:33:32;;;;;;;2.05;0.80;;;;;;;;;;5017576;28;20079;-60
2022/07/13 09:35:58;;;;;;;6.28;0.80;;;;;;;;;;5031479;28;20100;-60
2022/07/13 09:38:28;;;;;;;1.48;0.75;;;;;;;;;;5027946;28;20033;-59
2022/07/13 09:40:54;;;;;;;2.95;0.90;;;;;;;;;;5031804;28;20121;-59
2022/07/13 09:46:08;;;;;;;1.20;0.60;;;;;;;;;;5030154;28;20088;-58
2022/07/13 09:48:36;;;;;;;4.35;1.15;;;;;;;;;;5034219;28;20504;-59
2022/07/13 09:51:02;;;;;;;1.25;0.73;;;;;;;;;;5039982;28;20032;-60
2022/07/13 09:53:29;;;;;;;2.22;0.73;;;;;;;;;;5028917;28;20033;-60
2022/07/13 09:55:57;;;;;;;1.25;0.68;;;;;;;;;;5031883;28;20057;-60
2022/07/13 09:58:27;;;;;;;1.55;0.55;;;;;;;;;;5026220;28;20068;-59
2022/07/13 10:00:54;;;;;;;2.35;0.77;;;;;;;;;;5025622;28;20366;-59
2022/07/13 10:03:21;;;;;;;1.75;0.57;;;;;;;;;;5027001;28;20025;-58
2022/07/13 10:05:47;;;;;;;1.55;0.68;;;;;;;;;;5027325;28;20033;-59
2022/07/13 10:08:13;;;;;;;0.70;0.50;;;;;;;;;;5023032;28;20105;-59
2022/07/13 10:10:39;;;;;;;1.05;0.70;;;;;;;;;;5026740;28;20025;-59
2022/07/13 10:13:05;;;;;;;1.00;0.60;;;;;;;;;;5027780;28;20029;-59
2022/07/13 10:15:32;;;;;;;1.30;0.63;;;;;;;;;;5026626;28;20117;-59
2022/07/13 10:17:59;;;;;;;2.15;0.90;;;;;;;;;;5024459;28;20056;-59
2022/07/13 10:20:26;;;;;;;4.68;0.77;;;;;;;;;;5031040;28;20029;-59
2022/07/13 10:22:52;;;;;;;1.65;0.77;;;;;;;;;;5024835;28;20033;-59
2022/07/13 10:25:18;;;;;;;1.88;0.65;;;;;;;;;;5027312;28;20075;-60
2022/07/13 10:27:45;;;;;;;1.17;0.70;;;;;;;;;;5031489;28;20025;-59
2022/07/13 10:30:20;;;;;;;1.17;0.60;;;;;;;;;;5024689;28;20033;-60
2022/07/13 10:32:47;;;;;;;1.33;0.60;;;;;;;;;;5032537;28;20572;-60
2022/07/13 10:35:16;;;;;;;3.35;1.00;;;;;;;;;;5021691;28;20059;-60
2022/07/13 10:38:03;;;;;;;1.38;0.50;;;;;;;;;;5022957;28;20033;-60
2022/07/13 10:40:30;;;;;;;1.70;0.60;;;;;;;;;;5027090;28;20160;-59
2022/07/13 10:43:05;;;;;;;1.85;0.82;;;;;;;;;;5018370;28;20486;-60
2022/07/13 10:45:48;;;;;;;1.15;0.70;;;;;;;;;;5030848;28;20034;-58
2022/07/13 10:48:22;;;;;;;3.08;0.82;;;;;;;;;;5023028;28;20049;-60
2022/07/13 10:50:48;;;;;;;1.17;0.50;;;;;;;;;;5031257;28;20021;-59
2022/07/13 10:53:16;;;;;;;3.22;0.85;;;;;;;;;;5028844;28;20043;-58
2022/07/13 10:55:48;;;;;;;1.50;1.02;;;;;;;;;;5028708;28;20056;-59
2022/07/13 10:58:33;;;;;;;5.43;0.80;;;;;;;;;;5016454;28;20033;-57
2022/07/13 11:01:00;;;;;;;0.90;0.75;;;;;;;;;;5021028;28;20038;-58
2022/07/13 11:03:38;;;;;;;1.73;0.60;;;;;;;;;;5028341;28;20022;-59
2022/07/13 11:06:05;;;;;;;2.30;0.93;;;;;;;;;;5029554;28;20033;-57
2022/07/13 11:08:31;;;;;;;1.85;0.77;;;;;;;;;;5027408;28;20032;-59
2022/07/13 11:11:11;;;;;;;3.08;0.90;;;;;;;;;;5030603;28;20040;-59
2022/07/13 11:13:37;;;;;;;1.00;0.73;;;;;;;;;;5029532;28;20029;-60
2022/07/13 11:16:03;;;;;;;1.10;0.77;;;;;;;;;;5029661;28;20034;-60
2022/07/13 11:18:31;;;;;;;2.58;0.75;;;;;;;;;;5020268;28;20381;-59
2022/07/13 11:20:57;;;;;;;1.10;0.63;;;;;;;;;;5023505;28;20037;-59
2022/07/13 11:26:13;;;;;;;3.63;1.15;;;;;;;;;;5024695;28;20079;-58
2022/07/13 11:28:46;;;;;;;2.63;0.90;;;;;;;;;;5033438;28;20039;-59
2022/07/13 11:31:12;;;;;;;;;;;;;;;;;;5030390;28;20047;-60
2022/07/13 11:33:38;;;;;;;1.95;0.60;;;;;;;;;;5030969;28;20000;-59
2022/07/13 11:36:07;;;;;;;0.77;0.65;;;;;;;;;;5025042;28;20075;-59
2022/07/13 11:38:36;;;;;;;3.88;1.23;;;;;;;;;;5031442;28;20053;-60
2022/07/13 11:41:05;;;;;;;1.42;0.65;;;;;;;;;;5031163;28;20029;-59
2022/07/13 11:43:31;;;;;;;3.25;0.90;;;;;;;;;;5024818;28;20029;-60
2022/07/13 11:45:57;;;;;;;2.30;0.80;;;;;;;;;;5030753;28;20021;-59
2022/07/13 11:48:24;;;;;;;4.93;0.80;;;;;;;;;;5035805;28;20028;-60
2022/07/13 11:50:52;;;;;;;3.30;1.00;;;;;;;;;;5040764;28;20021;-59
2022/07/13 11:53:22;;;;;;;1.58;0.93;;;;;;;;;;5034681;28;20042;-57
2022/07/13 11:55:48;;;;;;;3.60;0.70;;;;;;;;;;5026627;28;20045;-59
2022/07/13 11:58:33;;;;;;;4.47;1.45;;;;;;;;;;5032283;28;20433;-59
2022/07/13 12:01:00;;;;;;;1.60;0.68;;;;;;;;;;5023566;28;20068;-60
2022/07/13 12:03:26;;;;;;;1.98;0.57;;;;;;;;;;5034015;28;20035;-59
2022/07/13 12:05:52;;;;;;;2.30;0.40;;;;;;;;;;5029150;28;20112;-58
2022/07/13 12:08:18;;;;;;;2.33;0.57;;;;;;;;;;5024995;28;20477;-59
2022/07/13 12:10:44;;;;;;;1.48;0.90;;;;;;;;;;5031880;28;20083;-57
2022/07/13 12:13:10;;;;;;;4.35;0.63;;;;;;;;;;5031853;28;20101;-59
2022/07/13 12:15:36;;;;;;;1.25;0.60;;;;;;;;;;5044250;28;20037;-58
2022/07/13 12:18:05;;;;;;;1.33;0.70;;;;;;;;;;5025981;28;20022;-59
2022/07/13 12:20:34;;;;;;;1.42;0.60;;;;;;;;;;5033606;28;20026;-59
2022/07/13 12:23:00;;;;;;;2.13;0.80;;;;;;;;;;5040671;28;20029;-60
2022/07/13 12:25:35;;;;;;;1.35;0.50;;;;;;;;;;5039988;28;20022;-59
2022/07/13 12:28:05;;;;;;;2.00;1.08;;;;;;;;;;5034867;28;20154;-60
2022/07/13 12:30:32;;;;;;;3.97;0.68;;;;;;;;;;5033773;28;20029;-60
2022/07/13 12:33:09;;;;;;;1.08;0.68;;;;;;;;;;5037078;28;20043;-59
2022/07/13 12:35:40;;;;;;;1.17;0.60;;;;;;;;;;5031528;28;20543;-59
2022/07/13 12:38:11;;;;;;;0.80;0.55;;;;;;;;;;5033455;28;20487;-60
2022/07/13 12:40:44;;;;;;;1.90;0.50;;;;;;;;;;5034782;28;20029;-59
2022/07/13 12:43:16;;;;;;;3.10;0.70;;;;;;;;;;5033964;28;20029;-58
2022/07/13 12:45:44;;;;;;;0.73;0.47;;;;;;;;;;5037232;28;20033;-59
2022/07/13 12:48:16;;;;;;;0.80;0.60;;;;;;;;;;5031349;28;20041;-60
2022/07/13 12:50:58;;;;;;;3.03;0.93;;;;;;;;;;5029980;28;20033;-60
2022/07/13 12:53:25;;;;;;;1.35;0.60;;;;;;;;;;5033491;28;20477;-58
2022/07/13 12:56:00;;;;;;;2.00;0.68;;;;;;;;;;5031677;28;20048;-59
2022/07/13 12:58:47;;;;;;;1.23;0.75;;;;;;;;;;5032702;28;20036;-59
2022/07/13 13:01:27;;;;;;;1.60;0.70;;;;;;;;;;5027482;28;20497;-60
2022/07/13 13:03:53;;;;;;;2.13;0.80;;;;;;;;;;5030200;28;20048;-60
2022/07/13 13:06:19;;;;;;;4.60;0.93;;;;;;;;;;5033057;28;20457;-59
2022/07/13 13:08:45;;;;;;;2.88;0.60;;;;;;;;;;5030979;28;20803;-60
2022/07/13 13:11:11;;;;;;;1.73;0.70;;;;;;;;;;5022165;28;20441;-59
2022/07/13 13:13:37;;;;;;;3.22;0.90;;;;;;;;;;5028953;28;20032;-60
2022/07/13 13:16:03;;;;;;;1.27;0.65;;;;;;;;;;5033339;28;20087;-60
2022/07/13 13:18:29;;;;;;;4.38;0.80;;;;;;;;;;5023252;28;20029;-58
2022/07/13 13:20:55;;;;;;;1.23;0.70;;;;;;;;;;5036807;28;20362;-59
2022/07/13 13:23:21;;;;;;;0.57;0.40;;;;;;;;;;5033226;28;20087;-60
2022/07/13 13:25:47;;;;;;;1.45;0.60;;;;;;;;;;5033323;28;20504;-59
2022/07/13 13:28:13;;;;;;;5.97;0.80;;;;;;;;;;5032349;28;20454;-60
2022/07/13 13:30:44;;;;;;;2.08;0.63;;;;;;;;;;5031529;28;20037;-60
2022/07/13 13:33:11;;;;;;;1.50;0.63;;;;;;;;;;5039135;28;20025;-60
2022/07/13 13:35:37;;;;;;;2.20;0.60;;;;;;;;;;5039570;28;20034;-60
2022/07/13 13:38:03;;;;;;;19.67;1.23;;;;;;;;;;5044087;28;20025;-60
2022/07/13 13:40:29;;;;;;;2.47;0.90;;;;;;;;;;5030300;28;20397;-59
2022/07/13 13:42:55;;;;;;;3.63;0.70;;;;;;;;;;5026449;28;20025;-60
2022/07/13 13:45:22;;;;;;;5.50;1.02;;;;;;;;;;5028458;28;20030;-60
2022/07/13 13:47:48;;;;;;;3.40;0.60;;;;;;;;;;5024543;28;20063;-59
2022/07/13 13:50:14;;;;;;;1.00;0.60;;;;;;;;;;5032069;28;20536;-60
2022/07/13 13:52:41;;;;;;;2.42;0.70;;;;;;;;;;5034262;28;21460;-59
2022/07/13 13:55:08;;;;;;;4.25;1.10;;;;;;;;;;5029577;28;20515;-57
2022/07/13 13:57:34;;;;;;;4.15;0.88;;;;;;;;;;5027480;28;20119;-58
2022/07/13 14:00:00;;;;;;;1.20;0.60;;;;;;;;;;5036425;28;20037;-59
2022/07/13 14:02:26;;;;;;;1.67;0.80;;;;;;;;;;5038532;28;20098;-59
2022/07/13 14:04:52;;;;;;;1.45;0.50;;;;;;;;;;5035584;28;20477;-60
2022/07/13 14:07:17;;;;;;;1.08;0.50;;;;;;;;;;5033036;28;20035;-59
2022/07/13 14:09:44;;;;;;;2.08;0.57;;;;;;;;;;5043434;28;20107;-58
2022/07/13 14:12:10;;;;;;;3.92;0.63;;;;;;;;;;5029544;28;20492;-60
2022/07/13 14:14:35;;;;;;;1.40;0.70;;;;;;;;;;5029568;28;20029;-60
2022/07/13 14:17:03;;;;;;;2.05;0.70;;;;;;;;;;5030555;28;20022;-60
2022/07/13 14:19:29;;;;;;;6.72;0.70;;;;;;;;;;5030784;28;20037;-60
2022/07/13 14:21:55;;;;;;;2.08;0.70;;;;;;;;;;5031954;28;20059;-58
2022/07/13 14:24:23;;;;;;;1.98;0.65;;;;;;;;;;5031950;28;20021;-59
2022/07/13 14:26:50;;;;;;;0.80;0.60;;;;;;;;;;5022017;28;20475;-60
2022/07/13 14:29:16;;;;;;;1.98;0.45;;;;;;;;;;5027251;28;20034;-60
2022/07/13 14:31:42;;;;;;;0.73;0.55;;;;;;;;;;5030085;28;20025;-59
2022/07/13 14:34:08;;;;;;;1.20;0.60;;;;;;;;;;5045309;28;20035;-59
2022/07/13 14:36:34;;;;;;;3.95;0.60;;;;;;;;;;5031800;28;20026;-58
2022/07/13 14:39:00;;;;;;;3.10;0.65;;;;;;;;;;5028367;28;20071;-57
2022/07/13 14:41:26;;;;;;;1.90;0.60;;;;;;;;;;5030844;28;20025;-58
2022/07/13 14:43:52;;;;;;;3.80;0.68;;;;;;;;;;5031643;28;20071;-57
2022/07/13 14:46:22;;;;;;;2.25;0.80;;;;;;;;;;5031316;28;20028;-56
2022/07/13 14:48:48;;;;;;;1.50;0.60;;;;;;;;;;5015574;28;20018;-58
2022/07/13 14:51:14;;;;;;;4.45;0.60;;;;;;;;;;5031042;28;20465;-57
2022/07/13 14:53:41;;;;;;;4.20;0.63;;;;;;;;;;5031417;28;20068;-57